sensor_id;sensor_type;location;lat;lon;timestamp;temperature;humidity
20735;DHT22;10528;52.124;5.196;2023-06-04T00:02:19;14.60;99.90
20735;DHT22;10528;52.124;5.196;2023-06-04T00:04:47;14.60;99.90
20735;DHT22;10528;52.124;5.196;2023-06-04T00:07:14;14.60;99.90
20735;DHT22;10528;52.124;5.196;2023-06-04T00:09:41;14.60;99.90
20735;DHT22;10528;52.124;5.196;2023-06-04T00:12:08;14.60;99.90
20735;DHT22;10528;52.124;5.196;2023-06-04T00:14:35;14.50;99.90
20735;DHT22;10528;52.124;5.196;2023-06-04T00:17:02;14.40;99.90
20735;DHT22;10528;52.124;5.196;2023-06-04T00:19:29;14.40;99.90
20735;DHT22;10528;52.124;5.196;2023-06-04T00:21:55;14.40;99.90
20735;DHT22;10528;52.124;5.196;2023-06-04T00:24:22;14.40;99.90
20735;DHT22;10528;52.124;5.196;2023-06-04T00:26:49;14.40;99.90
20735;DHT22;10528;52.124;5.196;2023-06-04T00:29:16;14.30;99.90
20735;DHT22;10528;52.124;5.196;2023-06-04T00:31:43;14.30;99.90
20735;DHT22;10528;52.124;5.196;2023-06-04T00:34:11;14.30;99.90
20735;DHT22;10528;52.124;5.196;2023-06-04T00:36:39;14.30;99.90
20735;DHT22;10528;52.124;5.196;2023-06-04T00:39:07;14.20;99.90
20735;DHT22;10528;52.124;5.196;2023-06-04T00:41:33;14.20;99.90
20735;DHT22;10528;52.124;5.196;2023-06-04T00:44:01;14.20;99.90
20735;DHT22;10528;52.124;5.196;2023-06-04T00:46:28;14.20;99.90
20735;DHT22;10528;52.124;5.196;2023-06-04T00:48:58;14.20;99.90
20735;DHT22;10528;52.124;5.196;2023-06-04T00:51:25;14.20;99.90
20735;DHT22;10528;52.124;5.196;2023-06-04T00:53:53;14.00;99.90
20735;DHT22;10528;52.124;5.196;2023-06-04T00:56:20;14.00;99.90
20735;DHT22;10528;52.124;5.196;2023-06-04T00:58:47;13.90;99.90
20735;DHT22;10528;52.124;5.196;2023-06-04T01:01:51;14.00;99.90
20735;DHT22;10528;52.124;5.196;2023-06-04T01:04:29;13.90;99.90
20735;DHT22;10528;52.124;5.196;2023-06-04T01:07:04;13.90;99.90
20735;DHT22;10528;52.124;5.196;2023-06-04T01:09:33;13.90;99.90
20735;DHT22;10528;52.124;5.196;2023-06-04T01:12:07;13.80;99.90
20735;DHT22;10528;52.124;5.196;2023-06-04T01:14:34;13.80;99.90
20735;DHT22;10528;52.124;5.196;2023-06-04T01:17:25;13.80;99.90
20735;DHT22;10528;52.124;5.196;2023-06-04T01:25:25;13.70;99.90
20735;DHT22;10528;52.124;5.196;2023-06-04T01:27:59;13.60;99.90
20735;DHT22;10528;52.124;5.196;2023-06-04T01:30:31;13.60;99.90
20735;DHT22;10528;52.124;5.196;2023-06-04T01:33:10;13.60;99.90
20735;DHT22;10528;52.124;5.196;2023-06-04T01:35:39;13.60;99.90
20735;DHT22;10528;52.124;5.196;2023-06-04T01:38:07;13.60;99.90
20735;DHT22;10528;52.124;5.196;2023-06-04T01:40:34;13.50;99.90
20735;DHT22;10528;52.124;5.196;2023-06-04T01:43:02;13.50;99.90
20735;DHT22;10528;52.124;5.196;2023-06-04T01:45:30;13.50;99.90
20735;DHT22;10528;52.124;5.196;2023-06-04T01:47:57;13.50;99.90
20735;DHT22;10528;52.124;5.196;2023-06-04T01:50:24;13.40;99.90
20735;DHT22;10528;52.124;5.196;2023-06-04T01:52:51;13.30;99.90
20735;DHT22;10528;52.124;5.196;2023-06-04T01:55:18;13.40;99.90
20735;DHT22;10528;52.124;5.196;2023-06-04T01:57:46;13.20;99.90
20735;DHT22;10528;52.124;5.196;2023-06-04T02:00:17;13.20;99.90
20735;DHT22;10528;52.124;5.196;2023-06-04T02:02:45;13.30;99.90
20735;DHT22;10528;52.124;5.196;2023-06-04T02:05:15;13.30;99.90
20735;DHT22;10528;52.124;5.196;2023-06-04T02:07:43;13.20;99.90
20735;DHT22;10528;52.124;5.196;2023-06-04T02:10:16;13.20;99.90
20735;DHT22;10528;52.124;5.196;2023-06-04T02:12:59;13.10;99.90
20735;DHT22;10528;52.124;5.196;2023-06-04T02:15:30;13.10;99.90
20735;DHT22;10528;52.124;5.196;2023-06-04T02:18:00;13.00;99.90
20735;DHT22;10528;52.124;5.196;2023-06-04T02:20:44;13.10;99.90
20735;DHT22;10528;52.124;5.196;2023-06-04T02:23:12;12.90;99.90
20735;DHT22;10528;52.124;5.196;2023-06-04T02:25:40;12.90;99.90
20735;DHT22;10528;52.124;5.196;2023-06-04T02:28:08;12.90;99.90
20735;DHT22;10528;52.124;5.196;2023-06-04T02:30:35;12.90;99.90
20735;DHT22;10528;52.124;5.196;2023-06-04T02:33:02;12.80;99.90
20735;DHT22;10528;52.124;5.196;2023-06-04T02:35:31;12.80;99.90
20735;DHT22;10528;52.124;5.196;2023-06-04T02:37:58;12.70;99.90
20735;DHT22;10528;52.124;5.196;2023-06-04T02:40:26;12.60;99.90
20735;DHT22;10528;52.124;5.196;2023-06-04T02:42:54;12.60;99.90
20735;DHT22;10528;52.124;5.196;2023-06-04T02:45:22;12.60;99.90
20735;DHT22;10528;52.124;5.196;2023-06-04T02:47:49;12.60;99.90
20735;DHT22;10528;52.124;5.196;2023-06-04T02:50:16;12.50;99.90
20735;DHT22;10528;52.124;5.196;2023-06-04T02:52:43;12.50;99.90
20735;DHT22;10528;52.124;5.196;2023-06-04T02:55:11;12.50;99.90
20735;DHT22;10528;52.124;5.196;2023-06-04T02:57:42;12.50;99.90
20735;DHT22;10528;52.124;5.196;2023-06-04T03:00:11;12.50;99.90
20735;DHT22;10528;52.124;5.196;2023-06-04T03:02:47;12.40;99.90
20735;DHT22;10528;52.124;5.196;2023-06-04T03:05:16;12.40;99.90
20735;DHT22;10528;52.124;5.196;2023-06-04T03:07:45;12.30;99.90
20735;DHT22;10528;52.124;5.196;2023-06-04T03:10:15;12.30;99.90
20735;DHT22;10528;52.124;5.196;2023-06-04T03:12:43;12.20;99.90
20735;DHT22;10528;52.124;5.196;2023-06-04T03:15:10;12.20;99.90
20735;DHT22;10528;52.124;5.196;2023-06-04T03:17:38;12.20;99.90
20735;DHT22;10528;52.124;5.196;2023-06-04T03:20:05;12.10;99.90
20735;DHT22;10528;52.124;5.196;2023-06-04T03:22:34;12.10;99.90
20735;DHT22;10528;52.124;5.196;2023-06-04T03:25:03;12.00;99.90
20735;DHT22;10528;52.124;5.196;2023-06-04T03:27:31;12.10;99.90
20735;DHT22;10528;52.124;5.196;2023-06-04T03:29:59;12.00;99.90
20735;DHT22;10528;52.124;5.196;2023-06-04T03:32:30;12.10;99.90
20735;DHT22;10528;52.124;5.196;2023-06-04T03:34:57;12.10;99.90
20735;DHT22;10528;52.124;5.196;2023-06-04T03:37:24;12.00;99.90
20735;DHT22;10528;52.124;5.196;2023-06-04T03:39:52;12.10;99.90
20735;DHT22;10528;52.124;5.196;2023-06-04T03:42:19;12.10;99.90
20735;DHT22;10528;52.124;5.196;2023-06-04T03:44:46;12.10;99.90
20735;DHT22;10528;52.124;5.196;2023-06-04T03:47:14;12.10;99.90
20735;DHT22;10528;52.124;5.196;2023-06-04T03:49:41;12.10;99.90
20735;DHT22;10528;52.124;5.196;2023-06-04T03:52:08;12.10;99.90
20735;DHT22;10528;52.124;5.196;2023-06-04T03:54:37;12.10;99.90
20735;DHT22;10528;52.124;5.196;2023-06-04T03:57:04;12.20;99.90
20735;DHT22;10528;52.124;5.196;2023-06-04T03:59:31;12.20;99.90
20735;DHT22;10528;52.124;5.196;2023-06-04T04:01:58;12.10;99.90
20735;DHT22;10528;52.124;5.196;2023-06-04T04:04:27;12.20;99.90
20735;DHT22;10528;52.124;5.196;2023-06-04T04:06:55;12.20;99.90
20735;DHT22;10528;52.124;5.196;2023-06-04T04:09:22;12.30;99.90
20735;DHT22;10528;52.124;5.196;2023-06-04T04:11:49;12.30;99.90
20735;DHT22;10528;52.124;5.196;2023-06-04T04:14:16;12.30;99.90
20735;DHT22;10528;52.124;5.196;2023-06-04T04:16:44;12.30;99.90
20735;DHT22;10528;52.124;5.196;2023-06-04T04:19:11;12.30;99.90
20735;DHT22;10528;52.124;5.196;2023-06-04T04:21:39;12.40;99.90
20735;DHT22;10528;52.124;5.196;2023-06-04T04:24:06;12.30;99.90
20735;DHT22;10528;52.124;5.196;2023-06-04T04:26:34;12.30;99.90
20735;DHT22;10528;52.124;5.196;2023-06-04T04:29:02;12.40;99.90
20735;DHT22;10528;52.124;5.196;2023-06-04T04:31:31;12.50;99.90
20735;DHT22;10528;52.124;5.196;2023-06-04T04:33:59;12.60;99.90
20735;DHT22;10528;52.124;5.196;2023-06-04T04:36:27;12.60;99.90
20735;DHT22;10528;52.124;5.196;2023-06-04T04:38:54;12.70;99.90
20735;DHT22;10528;52.124;5.196;2023-06-04T04:41:28;12.70;99.90
20735;DHT22;10528;52.124;5.196;2023-06-04T04:44:03;12.80;99.90
20735;DHT22;10528;52.124;5.196;2023-06-04T04:46:31;12.90;99.90
20735;DHT22;10528;52.124;5.196;2023-06-04T04:48:58;12.90;99.90
20735;DHT22;10528;52.124;5.196;2023-06-04T04:51:25;13.50;99.90
20735;DHT22;10528;52.124;5.196;2023-06-04T04:53:53;14.50;99.90
20735;DHT22;10528;52.124;5.196;2023-06-04T04:56:22;14.90;99.90
20735;DHT22;10528;52.124;5.196;2023-06-04T04:58:50;15.10;99.90
20735;DHT22;10528;52.124;5.196;2023-06-04T05:01:17;15.40;99.90
20735;DHT22;10528;52.124;5.196;2023-06-04T05:03:44;15.30;99.90
20735;DHT22;10528;52.124;5.196;2023-06-04T05:06:13;15.60;99.90
20735;DHT22;10528;52.124;5.196;2023-06-04T05:08:40;16.10;99.90
20735;DHT22;10528;52.124;5.196;2023-06-04T05:11:08;16.20;99.90
20735;DHT22;10528;52.124;5.196;2023-06-04T05:13:37;16.40;99.90
20735;DHT22;10528;52.124;5.196;2023-06-04T05:16:05;16.50;99.90
20735;DHT22;10528;52.124;5.196;2023-06-04T05:18:39;16.00;99.90
20735;DHT22;10528;52.124;5.196;2023-06-04T05:21:14;16.00;99.90
20735;DHT22;10528;52.124;5.196;2023-06-04T05:23:46;16.10;99.90
20735;DHT22;10528;52.124;5.196;2023-06-04T05:26:16;16.00;99.90
20735;DHT22;10528;52.124;5.196;2023-06-04T05:28:43;16.00;99.90
20735;DHT22;10528;52.124;5.196;2023-06-04T05:31:12;16.00;99.90
20735;DHT22;10528;52.124;5.196;2023-06-04T05:33:40;16.70;99.90
20735;DHT22;10528;52.124;5.196;2023-06-04T05:36:11;17.40;99.90
20735;DHT22;10528;52.124;5.196;2023-06-04T05:38:46;17.90;99.90
20735;DHT22;10528;52.124;5.196;2023-06-04T05:41:16;18.30;99.90
20735;DHT22;10528;52.124;5.196;2023-06-04T05:43:43;18.00;99.90
20735;DHT22;10528;52.124;5.196;2023-06-04T05:46:13;18.10;99.90
20735;DHT22;10528;52.124;5.196;2023-06-04T05:48:41;18.50;99.90
20735;DHT22;10528;52.124;5.196;2023-06-04T05:51:08;18.70;99.90
20735;DHT22;10528;52.124;5.196;2023-06-04T05:53:38;18.90;99.90
20735;DHT22;10528;52.124;5.196;2023-06-04T05:56:05;18.80;99.90
20735;DHT22;10528;52.124;5.196;2023-06-04T05:58:35;19.00;99.90
20735;DHT22;10528;52.124;5.196;2023-06-04T06:01:04;19.00;99.90
20735;DHT22;10528;52.124;5.196;2023-06-04T06:03:31;19.90;99.90
20735;DHT22;10528;52.124;5.196;2023-06-04T06:05:58;20.40;99.90
20735;DHT22;10528;52.124;5.196;2023-06-04T06:08:27;20.30;99.90
20735;DHT22;10528;52.124;5.196;2023-06-04T06:10:54;20.00;99.90
20735;DHT22;10528;52.124;5.196;2023-06-04T06:13:22;19.60;99.90
20735;DHT22;10528;52.124;5.196;2023-06-04T06:15:49;19.30;99.90
20735;DHT22;10528;52.124;5.196;2023-06-04T06:18:16;20.00;99.90
20735;DHT22;10528;52.124;5.196;2023-06-04T06:20:43;19.70;99.90
20735;DHT22;10528;52.124;5.196;2023-06-04T06:23:10;20.50;99.90
20735;DHT22;10528;52.124;5.196;2023-06-04T06:25:41;20.30;99.90
20735;DHT22;10528;52.124;5.196;2023-06-04T06:28:14;20.40;99.90
20735;DHT22;10528;52.124;5.196;2023-06-04T06:30:43;21.00;99.90
20735;DHT22;10528;52.124;5.196;2023-06-04T06:33:11;21.00;99.90
20735;DHT22;10528;52.124;5.196;2023-06-04T06:35:38;21.00;99.90
20735;DHT22;10528;52.124;5.196;2023-06-04T06:38:06;20.80;99.90
20735;DHT22;10528;52.124;5.196;2023-06-04T06:40:33;21.10;99.90
20735;DHT22;10528;52.124;5.196;2023-06-04T06:43:00;21.10;99.90
20735;DHT22;10528;52.124;5.196;2023-06-04T06:45:26;21.50;99.90
20735;DHT22;10528;52.124;5.196;2023-06-04T06:47:53;21.70;99.90
20735;DHT22;10528;52.124;5.196;2023-06-04T06:50:20;22.30;99.90
20735;DHT22;10528;52.124;5.196;2023-06-04T06:52:47;22.00;99.90
20735;DHT22;10528;52.124;5.196;2023-06-04T06:55:14;22.00;99.90
20735;DHT22;10528;52.124;5.196;2023-06-04T06:57:41;22.60;99.90
20735;DHT22;10528;52.124;5.196;2023-06-04T07:00:09;22.30;99.90
20735;DHT22;10528;52.124;5.196;2023-06-04T07:02:36;22.40;99.90
20735;DHT22;10528;52.124;5.196;2023-06-04T07:05:04;22.50;99.90
20735;DHT22;10528;52.124;5.196;2023-06-04T07:07:31;22.40;99.90
20735;DHT22;10528;52.124;5.196;2023-06-04T07:09:58;22.60;99.90
20735;DHT22;10528;52.124;5.196;2023-06-04T07:12:24;22.90;99.90
20735;DHT22;10528;52.124;5.196;2023-06-04T07:14:51;23.40;99.90
20735;DHT22;10528;52.124;5.196;2023-06-04T07:17:18;22.80;99.90
20735;DHT22;10528;52.124;5.196;2023-06-04T07:19:45;23.10;99.90
20735;DHT22;10528;52.124;5.196;2023-06-04T07:22:12;23.50;99.90
20735;DHT22;10528;52.124;5.196;2023-06-04T07:24:39;23.30;99.90
20735;DHT22;10528;52.124;5.196;2023-06-04T07:27:13;23.60;99.90
20735;DHT22;10528;52.124;5.196;2023-06-04T07:29:43;23.70;99.90
20735;DHT22;10528;52.124;5.196;2023-06-04T07:32:12;23.70;99.90
20735;DHT22;10528;52.124;5.196;2023-06-04T07:34:39;24.00;99.90
20735;DHT22;10528;52.124;5.196;2023-06-04T07:37:06;23.80;99.90
20735;DHT22;10528;52.124;5.196;2023-06-04T07:39:34;23.70;99.90
20735;DHT22;10528;52.124;5.196;2023-06-04T07:42:01;23.60;99.90
20735;DHT22;10528;52.124;5.196;2023-06-04T07:44:28;23.60;99.90
20735;DHT22;10528;52.124;5.196;2023-06-04T07:46:55;23.80;99.90
20735;DHT22;10528;52.124;5.196;2023-06-04T07:49:22;24.60;99.90
20735;DHT22;10528;52.124;5.196;2023-06-04T07:51:49;24.40;99.90
20735;DHT22;10528;52.124;5.196;2023-06-04T07:54:16;24.40;99.90
20735;DHT22;10528;52.124;5.196;2023-06-04T07:56:43;24.70;99.90
20735;DHT22;10528;52.124;5.196;2023-06-04T07:59:10;24.90;99.90
20735;DHT22;10528;52.124;5.196;2023-06-04T08:01:37;24.50;99.90
20735;DHT22;10528;52.124;5.196;2023-06-04T08:04:03;23.80;99.90
20735;DHT22;10528;52.124;5.196;2023-06-04T08:06:31;24.40;99.90
20735;DHT22;10528;52.124;5.196;2023-06-04T08:08:58;24.20;99.90
20735;DHT22;10528;52.124;5.196;2023-06-04T08:11:24;24.50;99.90
20735;DHT22;10528;52.124;5.196;2023-06-04T08:13:51;24.30;99.90
20735;DHT22;10528;52.124;5.196;2023-06-04T08:16:18;24.50;99.90
20735;DHT22;10528;52.124;5.196;2023-06-04T08:18:45;24.50;99.90
20735;DHT22;10528;52.124;5.196;2023-06-04T08:21:12;24.80;99.90
20735;DHT22;10528;52.124;5.196;2023-06-04T08:23:39;24.80;99.90
20735;DHT22;10528;52.124;5.196;2023-06-04T08:26:06;24.60;99.90
20735;DHT22;10528;52.124;5.196;2023-06-04T08:28:34;24.60;99.90
20735;DHT22;10528;52.124;5.196;2023-06-04T08:31:01;24.50;99.90
20735;DHT22;10528;52.124;5.196;2023-06-04T08:33:28;24.20;99.90
20735;DHT22;10528;52.124;5.196;2023-06-04T08:35:55;23.30;99.90
20735;DHT22;10528;52.124;5.196;2023-06-04T08:38:22;23.90;99.90
20735;DHT22;10528;52.124;5.196;2023-06-04T08:40:52;23.50;99.90
20735;DHT22;10528;52.124;5.196;2023-06-04T08:43:22;23.60;99.90
20735;DHT22;10528;52.124;5.196;2023-06-04T08:45:51;23.50;99.90
20735;DHT22;10528;52.124;5.196;2023-06-04T08:48:24;23.80;99.90
20735;DHT22;10528;52.124;5.196;2023-06-04T08:50:56;23.50;99.90
20735;DHT22;10528;52.124;5.196;2023-06-04T08:53:26;23.50;99.90
20735;DHT22;10528;52.124;5.196;2023-06-04T08:55:53;23.90;99.90
20735;DHT22;10528;52.124;5.196;2023-06-04T08:58:21;23.70;99.90
20735;DHT22;10528;52.124;5.196;2023-06-04T09:00:49;23.50;99.90
20735;DHT22;10528;52.124;5.196;2023-06-04T09:03:17;23.20;99.90
20735;DHT22;10528;52.124;5.196;2023-06-04T09:05:48;23.00;99.90
20735;DHT22;10528;52.124;5.196;2023-06-04T09:08:17;23.20;99.90
20735;DHT22;10528;52.124;5.196;2023-06-04T09:10:47;23.30;99.90
20735;DHT22;10528;52.124;5.196;2023-06-04T09:13:19;23.20;99.90
20735;DHT22;10528;52.124;5.196;2023-06-04T09:16:02;23.20;99.70
20735;DHT22;10528;52.124;5.196;2023-06-04T09:18:30;23.00;99.90
20735;DHT22;10528;52.124;5.196;2023-06-04T09:21:02;22.80;99.90
20735;DHT22;10528;52.124;5.196;2023-06-04T09:23:30;23.30;99.90
20735;DHT22;10528;52.124;5.196;2023-06-04T09:26:06;23.30;99.90
20735;DHT22;10528;52.124;5.196;2023-06-04T09:28:36;22.80;99.70
20735;DHT22;10528;52.124;5.196;2023-06-04T09:31:13;23.00;99.90
20735;DHT22;10528;52.124;5.196;2023-06-04T09:33:51;23.10;99.90
20735;DHT22;10528;52.124;5.196;2023-06-04T09:36:18;23.40;99.90
20735;DHT22;10528;52.124;5.196;2023-06-04T09:38:45;23.40;99.90
20735;DHT22;10528;52.124;5.196;2023-06-04T09:41:17;23.90;99.90
20735;DHT22;10528;52.124;5.196;2023-06-04T09:43:51;23.90;99.90
20735;DHT22;10528;52.124;5.196;2023-06-04T09:46:26;23.80;99.90
20735;DHT22;10528;52.124;5.196;2023-06-04T09:49:00;23.90;99.30
20735;DHT22;10528;52.124;5.196;2023-06-04T09:51:29;23.40;96.80
20735;DHT22;10528;52.124;5.196;2023-06-04T09:53:59;23.70;97.50
20735;DHT22;10528;52.124;5.196;2023-06-04T09:56:28;23.50;97.80
20735;DHT22;10528;52.124;5.196;2023-06-04T09:58:58;23.70;98.20
20735;DHT22;10528;52.124;5.196;2023-06-04T10:01:30;23.50;99.90
20735;DHT22;10528;52.124;5.196;2023-06-04T10:04:03;23.70;98.50
20735;DHT22;10528;52.124;5.196;2023-06-04T10:06:34;24.00;98.50
20735;DHT22;10528;52.124;5.196;2023-06-04T10:09:06;23.70;97.00
20735;DHT22;10528;52.124;5.196;2023-06-04T10:11:39;24.00;97.70
20735;DHT22;10528;52.124;5.196;2023-06-04T10:14:22;24.10;97.00
20735;DHT22;10528;52.124;5.196;2023-06-04T10:16:51;24.40;98.10
20735;DHT22;10528;52.124;5.196;2023-06-04T10:19:20;24.00;98.10
20735;DHT22;10528;52.124;5.196;2023-06-04T10:21:47;24.00;97.90
20735;DHT22;10528;52.124;5.196;2023-06-04T10:24:15;24.30;98.10
20735;DHT22;10528;52.124;5.196;2023-06-04T10:26:43;24.40;99.10
20735;DHT22;10528;52.124;5.196;2023-06-04T10:29:11;24.50;97.70
20735;DHT22;10528;52.124;5.196;2023-06-04T10:31:39;24.20;97.50
20735;DHT22;10528;52.124;5.196;2023-06-04T10:34:08;24.30;98.10
20735;DHT22;10528;52.124;5.196;2023-06-04T10:36:42;24.40;98.30
20735;DHT22;10528;52.124;5.196;2023-06-04T10:39:11;24.60;97.70
20735;DHT22;10528;52.124;5.196;2023-06-04T10:41:38;24.10;93.90
20735;DHT22;10528;52.124;5.196;2023-06-04T10:44:06;23.90;92.50
20735;DHT22;10528;52.124;5.196;2023-06-04T10:46:40;23.50;92.70
20735;DHT22;10528;52.124;5.196;2023-06-04T10:49:11;23.90;93.20
20735;DHT22;10528;52.124;5.196;2023-06-04T10:51:39;23.90;94.70
20735;DHT22;10528;52.124;5.196;2023-06-04T10:54:07;24.50;95.70
20735;DHT22;10528;52.124;5.196;2023-06-04T10:56:35;24.70;95.00
20735;DHT22;10528;52.124;5.196;2023-06-04T10:59:16;24.50;93.70
20735;DHT22;10528;52.124;5.196;2023-06-04T11:01:45;24.30;93.50
20735;DHT22;10528;52.124;5.196;2023-06-04T11:04:23;24.30;94.30
20735;DHT22;10528;52.124;5.196;2023-06-04T11:07:04;24.70;94.60
20735;DHT22;10528;52.124;5.196;2023-06-04T11:09:37;24.50;94.10
20735;DHT22;10528;52.124;5.196;2023-06-04T11:12:13;24.60;96.80
20735;DHT22;10528;52.124;5.196;2023-06-04T11:14:41;24.80;95.80
20735;DHT22;10528;52.124;5.196;2023-06-04T11:17:11;24.60;94.80
20735;DHT22;10528;52.124;5.196;2023-06-04T11:19:39;24.70;95.30
20735;DHT22;10528;52.124;5.196;2023-06-04T11:22:11;24.10;94.40
20735;DHT22;10528;52.124;5.196;2023-06-04T11:24:39;24.50;95.30
20735;DHT22;10528;52.124;5.196;2023-06-04T11:27:06;24.80;94.60
20735;DHT22;10528;52.124;5.196;2023-06-04T11:29:49;24.60;96.40
20735;DHT22;10528;52.124;5.196;2023-06-04T11:32:24;25.10;95.60
20735;DHT22;10528;52.124;5.196;2023-06-04T11:35:02;25.00;94.80
20735;DHT22;10528;52.124;5.196;2023-06-04T11:37:31;24.40;93.50
20735;DHT22;10528;52.124;5.196;2023-06-04T11:40:00;24.30;94.80
20735;DHT22;10528;52.124;5.196;2023-06-04T11:42:32;24.70;95.10
20735;DHT22;10528;52.124;5.196;2023-06-04T11:45:00;24.70;94.60
20735;DHT22;10528;52.124;5.196;2023-06-04T11:47:27;24.30;94.30
20735;DHT22;10528;52.124;5.196;2023-06-04T11:49:56;24.60;95.60
20735;DHT22;10528;52.124;5.196;2023-06-04T11:52:23;24.60;94.80
20735;DHT22;10528;52.124;5.196;2023-06-04T11:54:51;24.50;94.10
20735;DHT22;10528;52.124;5.196;2023-06-04T11:57:18;24.40;94.10
20735;DHT22;10528;52.124;5.196;2023-06-04T11:59:45;24.70;95.80
20735;DHT22;10528;52.124;5.196;2023-06-04T12:02:12;24.90;95.80
20735;DHT22;10528;52.124;5.196;2023-06-04T12:04:39;24.50;94.00
20735;DHT22;10528;52.124;5.196;2023-06-04T12:07:06;24.40;94.30
20735;DHT22;10528;52.124;5.196;2023-06-04T12:09:35;24.30;95.50
20735;DHT22;10528;52.124;5.196;2023-06-04T12:12:06;24.40;95.90
20735;DHT22;10528;52.124;5.196;2023-06-04T12:14:34;24.00;95.20
20735;DHT22;10528;52.124;5.196;2023-06-04T12:17:06;24.20;95.50
20735;DHT22;10528;52.124;5.196;2023-06-04T12:19:48;24.60;96.90
20735;DHT22;10528;52.124;5.196;2023-06-04T12:22:15;24.60;98.40
20735;DHT22;10528;52.124;5.196;2023-06-04T12:24:50;24.20;98.80
20735;DHT22;10528;52.124;5.196;2023-06-04T12:27:22;24.30;99.40
20735;DHT22;10528;52.124;5.196;2023-06-04T12:30:00;24.40;99.30
20735;DHT22;10528;52.124;5.196;2023-06-04T12:32:34;24.70;98.90
20735;DHT22;10528;52.124;5.196;2023-06-04T12:35:02;24.50;98.60
20735;DHT22;10528;52.124;5.196;2023-06-04T12:37:29;24.40;99.90
20735;DHT22;10528;52.124;5.196;2023-06-04T12:39:56;24.70;99.90
20735;DHT22;10528;52.124;5.196;2023-06-04T12:42:23;24.60;99.90
20735;DHT22;10528;52.124;5.196;2023-06-04T12:44:50;24.40;99.60
20735;DHT22;10528;52.124;5.196;2023-06-04T12:47:17;24.60;99.90
20735;DHT22;10528;52.124;5.196;2023-06-04T12:49:45;24.00;98.70
20735;DHT22;10528;52.124;5.196;2023-06-04T12:52:12;24.00;99.20
20735;DHT22;10528;52.124;5.196;2023-06-04T12:54:42;23.80;99.90
20735;DHT22;10528;52.124;5.196;2023-06-04T12:57:10;23.80;99.10
20735;DHT22;10528;52.124;5.196;2023-06-04T12:59:37;23.70;99.90
20735;DHT22;10528;52.124;5.196;2023-06-04T13:02:05;23.90;99.90
20735;DHT22;10528;52.124;5.196;2023-06-04T13:04:32;24.30;99.90
20735;DHT22;10528;52.124;5.196;2023-06-04T13:06:59;24.20;99.90
20735;DHT22;10528;52.124;5.196;2023-06-04T13:09:26;24.30;99.90
20735;DHT22;10528;52.124;5.196;2023-06-04T13:11:57;24.40;99.90
20735;DHT22;10528;52.124;5.196;2023-06-04T13:14:24;24.10;99.90
20735;DHT22;10528;52.124;5.196;2023-06-04T13:16:50;24.00;99.90
20735;DHT22;10528;52.124;5.196;2023-06-04T13:19:18;23.90;99.90
20735;DHT22;10528;52.124;5.196;2023-06-04T13:21:48;23.70;99.90
20735;DHT22;10528;52.124;5.196;2023-06-04T13:24:15;23.70;99.90
20735;DHT22;10528;52.124;5.196;2023-06-04T13:26:43;23.80;99.90
20735;DHT22;10528;52.124;5.196;2023-06-04T13:29:09;23.80;99.90
20735;DHT22;10528;52.124;5.196;2023-06-04T13:31:38;23.90;99.90
20735;DHT22;10528;52.124;5.196;2023-06-04T13:34:08;24.00;99.90
20735;DHT22;10528;52.124;5.196;2023-06-04T13:36:54;23.90;99.90
20735;DHT22;10528;52.124;5.196;2023-06-04T13:39:21;23.90;99.90
20735;DHT22;10528;52.124;5.196;2023-06-04T13:41:49;23.60;99.90
20735;DHT22;10528;52.124;5.196;2023-06-04T13:44:16;23.70;99.90
20735;DHT22;10528;52.124;5.196;2023-06-04T13:46:43;23.70;99.90
20735;DHT22;10528;52.124;5.196;2023-06-04T13:49:10;23.50;99.90
20735;DHT22;10528;52.124;5.196;2023-06-04T13:51:37;23.50;99.90
20735;DHT22;10528;52.124;5.196;2023-06-04T13:54:04;23.60;99.90
20735;DHT22;10528;52.124;5.196;2023-06-04T13:56:31;23.60;99.90
20735;DHT22;10528;52.124;5.196;2023-06-04T13:58:58;23.50;99.90
20735;DHT22;10528;52.124;5.196;2023-06-04T14:01:25;23.50;99.90
20735;DHT22;10528;52.124;5.196;2023-06-04T14:03:52;23.40;99.90
20735;DHT22;10528;52.124;5.196;2023-06-04T14:06:19;23.70;99.90
20735;DHT22;10528;52.124;5.196;2023-06-04T14:08:46;23.50;99.90
20735;DHT22;10528;52.124;5.196;2023-06-04T14:11:13;23.20;99.90
20735;DHT22;10528;52.124;5.196;2023-06-04T14:13:40;23.30;99.90
20735;DHT22;10528;52.124;5.196;2023-06-04T14:16:11;23.50;99.90
20735;DHT22;10528;52.124;5.196;2023-06-04T14:18:38;23.40;99.90
20735;DHT22;10528;52.124;5.196;2023-06-04T14:21:05;23.30;99.90
20735;DHT22;10528;52.124;5.196;2023-06-04T14:23:32;23.00;99.90
20735;DHT22;10528;52.124;5.196;2023-06-04T14:25:59;23.30;99.90
20735;DHT22;10528;52.124;5.196;2023-06-04T14:28:26;23.30;99.90
20735;DHT22;10528;52.124;5.196;2023-06-04T14:30:53;23.10;99.90
20735;DHT22;10528;52.124;5.196;2023-06-04T14:33:20;23.00;99.90
20735;DHT22;10528;52.124;5.196;2023-06-04T14:35:47;23.00;99.90
20735;DHT22;10528;52.124;5.196;2023-06-04T14:38:14;23.20;99.90
20735;DHT22;10528;52.124;5.196;2023-06-04T14:40:42;23.10;99.90
20735;DHT22;10528;52.124;5.196;2023-06-04T14:43:11;23.00;99.90
20735;DHT22;10528;52.124;5.196;2023-06-04T14:45:38;22.90;99.90
20735;DHT22;10528;52.124;5.196;2023-06-04T14:48:06;22.80;99.90
20735;DHT22;10528;52.124;5.196;2023-06-04T14:50:42;23.10;99.90
20735;DHT22;10528;52.124;5.196;2023-06-04T14:53:11;23.00;99.90
20735;DHT22;10528;52.124;5.196;2023-06-04T14:55:38;22.90;99.90
20735;DHT22;10528;52.124;5.196;2023-06-04T14:58:05;23.10;99.90
20735;DHT22;10528;52.124;5.196;2023-06-04T15:00:32;22.90;99.90
20735;DHT22;10528;52.124;5.196;2023-06-04T15:02:59;22.80;99.90
20735;DHT22;10528;52.124;5.196;2023-06-04T15:05:29;23.00;99.90
20735;DHT22;10528;52.124;5.196;2023-06-04T15:07:58;23.00;99.90
20735;DHT22;10528;52.124;5.196;2023-06-04T15:10:25;22.70;99.90
20735;DHT22;10528;52.124;5.196;2023-06-04T15:12:53;22.60;99.90
20735;DHT22;10528;52.124;5.196;2023-06-04T15:15:20;22.50;99.90
20735;DHT22;10528;52.124;5.196;2023-06-04T15:17:48;22.40;99.90
20735;DHT22;10528;52.124;5.196;2023-06-04T15:20:16;22.40;99.90
20735;DHT22;10528;52.124;5.196;2023-06-04T15:22:43;22.40;99.90
20735;DHT22;10528;52.124;5.196;2023-06-04T15:25:10;22.70;99.90
20735;DHT22;10528;52.124;5.196;2023-06-04T15:27:37;22.60;99.90
20735;DHT22;10528;52.124;5.196;2023-06-04T15:30:05;22.70;99.90
20735;DHT22;10528;52.124;5.196;2023-06-04T15:32:33;22.80;99.90
20735;DHT22;10528;52.124;5.196;2023-06-04T15:35:01;22.60;99.90
20735;DHT22;10528;52.124;5.196;2023-06-04T15:37:29;22.70;99.90
20735;DHT22;10528;52.124;5.196;2023-06-04T15:39:56;22.50;99.90
20735;DHT22;10528;52.124;5.196;2023-06-04T15:42:24;22.30;99.90
20735;DHT22;10528;52.124;5.196;2023-06-04T15:44:51;22.20;99.90
20735;DHT22;10528;52.124;5.196;2023-06-04T15:47:18;22.40;99.90